»·PEaware :: LHB5 KPHX-KBUR

LHB5 :: KPHX-KBUR

FLIGHT INFORMATION

Flight Status: Arrived
Operator: Unknown
More flights by this operator :: More flights under this callsign
Pilot: Ben L. (6391)
Aircraft: BOEING 737-800
(B738)
More flights by this aircraft type
Origin: KPHX Phoenix Sky Harbor Intl
United States
Destination: KBUR Bob Hope-Burbank
United States
More flights between these airports :: More routes between these airports
Route: +ZEPER1 JKPOT EED JANNY5
File this flight plan on PilotEdge
Remarks: Callsign "Family"
Altitude:
(Current/Filed)
36,000ft
Speed:
(Current/Filed)
455kts
Departed: 16-Aug-19 10:16 AM
Arrived: 16-Aug-19 11:25 AM
Distance/Time
Traveled:
320nm/1:09
Distance/Time
To Go:
Arrived

Flight Plot

Page will automatically refresh every two minutes.

Flight plan parsing failed; only flown route is shown


Map Options




Map Legend


Flown Route
Filed Route
Departure Airport
Arrival Airport
Navaid (VOR, NDB)
Fix

Horizontal Profiles

Position Reports

Time Latitude Longitude Heading Altitude Ground
Speed
16-Aug-19 09:49 33.437405 -112.008176 270 1116ft 0kts
16-Aug-19 09:50 33.437405 -112.008176 270 1116ft 0kts
16-Aug-19 09:51 33.437405 -112.008176 270 1116ft 0kts
16-Aug-19 09:52 33.437405 -112.008176 270 1116ft 0kts
16-Aug-19 09:53 33.437405 -112.008176 270 1116ft 0kts
16-Aug-19 09:54 33.437405 -112.008176 270 1116ft 0kts
16-Aug-19 09:55 33.437405 -112.008176 270 1116ft 0kts
16-Aug-19 09:56 33.437405 -112.008176 270 1116ft 0kts
16-Aug-19 09:57 33.437405 -112.008176 270 1116ft 0kts
16-Aug-19 09:58 33.437405 -112.008176 270 1116ft 0kts
16-Aug-19 09:59 33.437405 -112.008176 270 1116ft 0kts
16-Aug-19 10:00 33.437405 -112.008176 270 1116ft 0kts
16-Aug-19 10:01 33.437405 -112.008176 270 1116ft 0kts
16-Aug-19 10:02 33.437405 -112.008176 270 1116ft 0kts
16-Aug-19 10:03 33.437405 -112.008176 270 1116ft 0kts
16-Aug-19 10:04 33.437405 -112.008176 270 1116ft 0kts
16-Aug-19 10:05 33.437405 -112.008176 270 1116ft 0kts
16-Aug-19 10:06 33.437405 -112.008175 270 1116ft 0kts
16-Aug-19 10:07 33.437405 -112.008175 270 1116ft 0kts
16-Aug-19 10:08 33.437279 -112.007544 314 1116ft 2kts
16-Aug-19 10:09 33.436863 -112.007361 2 1116ft 0kts
16-Aug-19 10:10 33.436864 -112.007361 2 1116ft 0kts
16-Aug-19 10:11 33.438470 -112.007365 0 1116ft 21kts
16-Aug-19 10:12 33.439722 -112.012357 270 1116ft 19kts
16-Aug-19 10:13 33.439768 -112.018948 269 1116ft 21kts
16-Aug-19 10:14 33.439798 -112.027719 266 1116ft 27kts
16-Aug-19 10:15 33.440878 -112.027104 88 1116ft 49kts
16-Aug-19 10:16 33.440312 -111.977287 93 1927ft 196kts
16-Aug-19 10:17 33.433548 -111.903132 94 3885ft 251kts
16-Aug-19 10:18 33.473645 -111.843864 0 6424ft 283kts
16-Aug-19 10:19 33.555285 -111.841884 0 9012ft 306kts
16-Aug-19 10:20 33.639006 -111.837299 0 9890ft 303kts
16-Aug-19 10:21 33.725950 -111.857241 328 11769ft 341kts
16-Aug-19 10:22 33.789198 -111.942179 303 14904ft 350kts
16-Aug-19 10:23 33.847787 -112.038277 303 18055ft 363kts
16-Aug-19 10:24 33.908576 -112.138011 303 20980ft 375kts
16-Aug-19 10:25 33.970931 -112.240591 303 23667ft 386kts
16-Aug-19 10:26 34.038338 -112.344000 313 26132ft 401kts
16-Aug-19 10:27 34.120982 -112.428143 317 28318ft 413kts
16-Aug-19 10:28 34.210649 -112.518367 317 30447ft 423kts
16-Aug-19 10:29 34.301631 -112.610194 317 32680ft 424kts
16-Aug-19 10:30 34.389764 -112.699444 316 34883ft 416kts
16-Aug-19 10:31 34.478906 -112.789986 316 36243ft 423kts
16-Aug-19 10:32 34.569541 -112.882245 316 36237ft 424kts
16-Aug-19 10:33 34.654495 -112.981947 302 36241ft 422kts
16-Aug-19 10:34 34.698394 -113.113207 278 36209ft 421kts
16-Aug-19 10:35 34.707585 -113.255655 274 36113ft 421kts
16-Aug-19 10:36 34.715050 -113.397351 274 34862ft 422kts
16-Aug-19 10:37 34.722371 -113.538940 274 35096ft 403kts
16-Aug-19 10:38 34.729125 -113.672624 273 36071ft 393kts
16-Aug-19 10:39 34.735687 -113.805909 273 36055ft 392kts
16-Aug-19 10:40 34.742102 -113.938423 273 35964ft 391kts
16-Aug-19 10:41 34.748365 -114.070778 273 35909ft 391kts
16-Aug-19 10:42 34.754480 -114.203174 274 35889ft 391kts
16-Aug-19 10:43 34.760483 -114.336074 274 35884ft 390kts
16-Aug-19 10:44 34.766357 -114.468779 273 35880ft 392kts
16-Aug-19 10:45 34.768959 -114.601840 272 35878ft 392kts
16-Aug-19 10:46 34.771840 -114.731139 272 35893ft 393kts
16-Aug-19 10:47 34.774623 -114.864238 271 35888ft 391kts
16-Aug-19 10:48 34.777291 -114.997837 271 35885ft 392kts
16-Aug-19 10:49 34.779709 -115.131078 271 35885ft 396kts
16-Aug-19 10:50 34.782174 -115.265785 271 35902ft 397kts
16-Aug-19 10:51 34.784483 -115.400539 271 35955ft 397kts
16-Aug-19 10:52 34.786674 -115.536940 271 34392ft 403kts
16-Aug-19 10:53 34.788629 -115.667934 271 32447ft 402kts
16-Aug-19 10:54 34.790509 -115.805305 271 30449ft 408kts
16-Aug-19 10:55 34.792836 -115.944723 271 28457ft 414kts
16-Aug-19 10:56 34.795484 -116.086102 271 26455ft 420kts
16-Aug-19 10:57 34.797984 -116.228925 271 24454ft 426kts
16-Aug-19 10:58 34.793794 -116.370050 268 23979ft 398kts
16-Aug-19 10:59 34.789264 -116.505334 268 23963ft 399kts
16-Aug-19 11:00 34.779484 -116.640686 263 22965ft 392kts
16-Aug-19 11:01 34.767190 -116.765763 263 21969ft 387kts
16-Aug-19 11:03 34.754314 -116.896773 263 21967ft 389kts
16-Aug-19 11:04 34.740989 -117.028419 264 22009ft 389kts
16-Aug-19 11:05 34.727114 -117.164843 264 22040ft 433kts
16-Aug-19 11:06 34.712048 -117.310830 264 22030ft 427kts
16-Aug-19 11:07 34.697432 -117.451013 264 19789ft 427kts
16-Aug-19 11:08 34.682557 -117.589098 264 19014ft 384kts
16-Aug-19 11:09 34.669855 -117.708734 263 17962ft 369kts
16-Aug-19 11:10 34.655907 -117.839999 263 14474ft 412kts
16-Aug-19 11:11 34.642062 -117.966734 263 13954ft 350kts
16-Aug-19 11:12 34.627309 -118.083308 257 12256ft 361kts
16-Aug-19 11:13 34.601495 -118.198479 256 10570ft 323kts
16-Aug-19 11:14 34.579504 -118.297214 256 9146ft 292kts
16-Aug-19 11:15 34.558710 -118.389728 253 7966ft 265kts
16-Aug-19 11:16 34.518963 -118.455754 216 7789ft 222kts
16-Aug-19 11:17 34.460305 -118.502265 212 7552ft 261kts
16-Aug-19 11:18 34.395759 -118.540588 192 6550ft 256kts
16-Aug-19 11:19 34.326745 -118.558138 192 5581ft 241kts
16-Aug-19 11:20 34.265882 -118.564820 157 4900ft 217kts
16-Aug-19 11:21 34.222371 -118.529720 121 3464ft 178kts
16-Aug-19 11:21 34.204308 -118.486781 109 2578ft 169kts
16-Aug-19 11:23 34.198309 -118.422985 89 1613ft 157kts
16-Aug-19 11:24 34.197962 -118.370948 90 844ft 150kts
16-Aug-19 11:24 34.197366 -118.350293 169 783ft 2kts
16-Aug-19 11:26 34.197210 -118.353623 269 784ft 20kts
16-Aug-19 11:26 34.196572 -118.355055 132 783ft 0kts
16-Aug-19 11:27 34.196527 -118.354997 132 783ft 0kts

Navigation Log

Ident Type
Flight plan parsing failed, navigation log unavailable